createdAt,value
2022-10-17T00:00:00.963Z,101684.72
2022-10-17T00:00:32.293Z,101680.84
2022-10-17T00:01:05.152Z,101680.03
2022-10-17T00:01:36.652Z,101677.22
2022-10-17T00:02:08.057Z,101680.03
2022-10-17T00:02:39.577Z,101672.53
2022-10-17T00:03:11.139Z,101678.81
2022-10-17T00:03:42.562Z,101685.50
2022-10-17T00:04:13.975Z,101680.84
2022-10-17T00:04:45.316Z,101682.78
2022-10-17T00:05:16.779Z,101680.38
2022-10-17T00:05:48.517Z,101682.78
2022-10-17T00:06:19.902Z,101684.72
2022-10-17T00:06:51.301Z,101680.34
2022-10-17T00:07:22.656Z,101682.69
2022-10-17T00:07:54.778Z,101684.28
2022-10-17T00:08:26.120Z,101694.06
2022-10-17T00:08:57.668Z,101686.59
2022-10-17T00:09:29.015Z,101674.84
2022-10-17T00:10:00.403Z,101678.75
2022-10-17T00:10:31.786Z,101687.03
2022-10-17T00:11:07.039Z,101680.72
2022-10-17T00:11:38.586Z,101684.59
2022-10-17T00:12:10.359Z,101681.91
2022-10-17T00:12:41.745Z,101680.72
2022-10-17T00:13:13.149Z,101689.72
2022-10-17T00:13:46.109Z,101681.50
2022-10-17T00:14:17.515Z,101686.59
2022-10-17T00:14:48.889Z,101683.84
2022-10-17T00:15:21.480Z,101681.47
2022-10-17T00:15:53.294Z,101679.53
2022-10-17T00:16:30.852Z,101667.78
2022-10-17T00:17:02.544Z,101672.91
2022-10-17T00:17:34.691Z,101675.63
2022-10-17T00:18:06.065Z,101670.91
2022-10-17T00:18:37.491Z,101670.16
2022-10-17T00:19:08.867Z,101663.09
2022-10-17T00:19:40.430Z,101667.41
2022-10-17T00:20:12.442Z,101670.16
2022-10-17T00:20:43.834Z,101660.31
2022-10-17T00:21:16.997Z,101661.16
2022-10-17T00:21:52.301Z,101658.00
2022-10-17T00:22:23.688Z,101667.78
2022-10-17T00:22:55.095Z,101670.16
2022-10-17T00:23:28.491Z,101661.09
2022-10-17T00:24:01.203Z,101659.56
2022-10-17T00:24:32.586Z,101664.69
2022-10-17T00:25:04.413Z,101656.78
2022-10-17T00:25:37.113Z,101665.41
2022-10-17T00:26:08.714Z,101661.16
2022-10-17T00:26:40.092Z,101656.00
2022-10-17T00:27:11.649Z,101663.47
2022-10-17T00:27:43.113Z,101661.91
2022-10-17T00:28:15.702Z,101658.38
2022-10-17T00:28:48.717Z,101659.91
2022-10-17T00:29:20.312Z,101652.84
2022-10-17T00:29:52.056Z,101656.38
2022-10-17T00:30:23.671Z,101656.38
2022-10-17T00:30:56.963Z,101650.09
2022-10-17T00:31:28.515Z,101655.22
2022-10-17T00:31:59.907Z,101654.44
2022-10-17T00:32:32.066Z,101650.91
2022-10-17T00:33:03.481Z,101652.84
2022-10-17T00:33:35.789Z,101654.78
2022-10-17T00:34:07.173Z,101642.63
2022-10-17T00:34:38.528Z,101648.91
2022-10-17T00:35:10.649Z,101654.38
2022-10-17T00:35:42.138Z,101642.22
2022-10-17T00:36:16.209Z,101652.81
2022-10-17T00:36:47.736Z,101655.53
2022-10-17T00:37:19.104Z,101652.38
2022-10-17T00:37:50.459Z,101645.69
2022-10-17T00:38:21.782Z,101650.84
2022-10-17T00:38:56.807Z,101650.09
2022-10-17T00:39:28.242Z,101649.69
2022-10-17T00:39:59.989Z,101650.09
2022-10-17T00:40:31.397Z,101645.00
2022-10-17T00:41:03.915Z,101648.16
2022-10-17T00:41:35.486Z,101646.94
2022-10-17T00:42:07.100Z,101648.91
2022-10-17T00:42:38.772Z,101660.69
2022-10-17T00:43:16.901Z,101649.31
2022-10-17T00:44:05.200Z,101657.16
2022-10-17T00:44:36.673Z,101655.59
2022-10-17T00:45:14.217Z,101652.84
2022-10-17T00:45:45.771Z,101655.59
2022-10-17T00:46:17.417Z,101655.16
2022-10-17T00:46:48.899Z,101654.75
2022-10-17T00:47:22.858Z,101657.47
2022-10-17T00:48:08.410Z,101652.81
2022-10-17T00:48:39.958Z,101650.84
2022-10-17T00:49:12.575Z,101655.91
2022-10-17T00:49:44.261Z,101649.66
2022-10-17T00:50:15.914Z,101638.69
2022-10-17T00:50:49.835Z,101648.47
2022-10-17T00:51:27.576Z,101648.84
2022-10-17T00:52:02.740Z,101654.75
2022-10-17T00:52:34.928Z,101643.75
2022-10-17T00:53:08.459Z,101648.47
2022-10-17T00:53:40.548Z,101650.44
2022-10-17T00:54:14.645Z,101642.97
2022-10-17T00:54:50.063Z,101645.75
2022-10-17T00:55:29.242Z,101639.84
2022-10-17T00:56:01.658Z,101646.53
2022-10-17T00:56:33.658Z,101642.63
2022-10-17T00:57:06.029Z,101647.31
2022-10-17T00:57:39.710Z,101644.59
2022-10-17T00:58:11.639Z,101646.53
2022-10-17T00:58:43.070Z,101647.31
2022-10-17T00:59:16.459Z,101648.84
2022-10-17T00:59:51.991Z,101649.28
2022-10-17T01:00:24.281Z,101649.28
2022-10-17T01:00:55.692Z,101646.59
2022-10-17T01:01:27.180Z,101649.69
2022-10-17T01:02:14.239Z,101650.09
2022-10-17T01:02:45.902Z,101647.38
2022-10-17T01:03:17.341Z,101645.38
2022-10-17T01:03:48.811Z,101649.69
2022-10-17T01:04:20.535Z,101642.25
2022-10-17T01:04:55.046Z,101642.22
2022-10-17T01:05:26.469Z,101642.63
2022-10-17T01:05:57.951Z,101646.59
2022-10-17T01:06:29.391Z,101644.22
2022-10-17T01:07:00.943Z,101646.59
2022-10-17T01:07:34.939Z,101647.00
2022-10-17T01:08:09.534Z,101647.75
2022-10-17T01:08:40.938Z,101651.69
2022-10-17T01:09:12.321Z,101647.38
2022-10-17T01:09:45.908Z,101643.06
2022-10-17T01:10:17.983Z,101645.78
2022-10-17T01:11:08.187Z,101649.75
2022-10-17T01:11:45.121Z,101641.91
2022-10-17T01:12:26.409Z,101646.94
2022-10-17T01:13:27.269Z,101645.00
2022-10-17T01:14:09.180Z,101640.69
2022-10-17T01:15:09.357Z,101637.16
2022-10-17T01:16:05.653Z,101634.78
2022-10-17T01:16:52.053Z,101631.28
2022-10-17T01:17:48.664Z,101633.22
2022-10-17T01:18:37.323Z,101632.44
2022-10-17T01:19:50.998Z,101634.38
2022-10-17T01:20:40.950Z,101632.00
2022-10-17T01:21:26.309Z,101626.53
2022-10-17T01:22:05.853Z,101627.69
2022-10-17T01:22:49.864Z,101627.69
2022-10-17T01:23:57.692Z,101626.53
2022-10-17T01:24:48.573Z,101620.66
2022-10-17T01:25:53.869Z,101633.16
2022-10-17T01:26:42.772Z,101631.59
2022-10-17T01:27:39.424Z,101629.25
2022-10-17T01:28:44.074Z,101632.00
2022-10-17T01:29:21.083Z,101623.78
2022-10-17T01:30:16.653Z,101626.09
2022-10-17T01:30:53.895Z,101627.31
2022-10-17T01:32:03.825Z,101628.47
2022-10-17T01:32:46.429Z,101621.41
2022-10-17T01:33:42.205Z,101624.91
2022-10-17T01:34:31.782Z,101619.06
2022-10-17T01:35:16.225Z,101618.25
2022-10-17T01:36:06.133Z,101622.53
2022-10-17T01:37:03.076Z,101624.91
2022-10-17T01:38:03.617Z,101621.75
2022-10-17T01:38:46.081Z,101620.16
2022-10-17T01:39:30.269Z,101620.16
2022-10-17T01:40:06.995Z,101617.44
2022-10-17T01:40:58.589Z,101622.91
2022-10-17T01:41:42.508Z,101620.16
2022-10-17T01:42:51.427Z,101620.94
2022-10-17T01:43:42.332Z,101613.91
2022-10-17T01:44:23.181Z,101615.06
2022-10-17T01:45:13.988Z,101622.13
2022-10-17T01:46:12.789Z,101622.13
2022-10-17T01:46:52.078Z,101614.28
2022-10-17T01:47:29.159Z,101621.69
2022-10-17T01:48:22.869Z,101614.28
2022-10-17T01:48:55.831Z,101614.28
2022-10-17T01:49:31.039Z,101618.97
2022-10-17T01:50:15.313Z,101617.00
2022-10-17T01:50:52.669Z,101620.91
2022-10-17T01:51:33.198Z,101615.84
2022-10-17T01:52:19.484Z,101614.28
2022-10-17T01:53:03.579Z,101612.31
2022-10-17T01:53:42.099Z,101614.63
2022-10-17T01:54:21.575Z,101605.66
2022-10-17T01:54:58.625Z,101616.63
2022-10-17T01:55:36.433Z,101615.06
2022-10-17T01:56:12.100Z,101607.28
2022-10-17T01:56:45.886Z,101612.75
2022-10-17T01:57:33.240Z,101611.16
2022-10-17T01:58:12.645Z,101613.53
2022-10-17T01:58:50.574Z,101613.53
2022-10-17T01:59:31.161Z,101611.94
2022-10-17T02:00:06.111Z,101606.06
2022-10-17T02:00:40.046Z,101615.47
2022-10-17T02:01:12.792Z,101600.22
2022-10-17T02:01:46.384Z,101605.31
2022-10-17T02:02:20.551Z,101597.44
2022-10-17T02:03:03.450Z,101592.34
2022-10-17T02:03:35.925Z,101592.38
2022-10-17T02:04:11.175Z,101593.13
2022-10-17T02:04:43.014Z,101589.63
2022-10-17T02:05:17.312Z,101592.78
2022-10-17T02:05:48.814Z,101586.91
2022-10-17T02:06:20.366Z,101590.06
2022-10-17T02:06:51.728Z,101580.63
2022-10-17T02:07:23.180Z,101579.84
2022-10-17T02:07:54.625Z,101575.97
2022-10-17T02:08:29.870Z,101581.84
2022-10-17T02:09:02.389Z,101577.56
2022-10-17T02:09:33.915Z,101579.53
2022-10-17T02:10:12.979Z,101578.75
2022-10-17T02:10:53.396Z,101581.47
2022-10-17T02:11:27.244Z,101579.91
2022-10-17T02:12:20.166Z,101579.94
2022-10-17T02:13:01.996Z,101578.38
2022-10-17T02:13:45.088Z,101583.06
2022-10-17T02:14:41.238Z,101568.16
2022-10-17T02:15:59.279Z,101570.09
2022-10-17T02:16:39.288Z,101568.91
2022-10-17T02:17:26.450Z,101566.16
2022-10-17T02:18:13.671Z,101569.69
2022-10-17T02:18:44.935Z,101576.75
2022-10-17T02:19:25.097Z,101571.28
2022-10-17T02:19:59.069Z,101572.84
2022-10-17T02:20:40.901Z,101569.31
2022-10-17T02:21:27.084Z,101575.16
2022-10-17T02:22:18.700Z,101563.81
2022-10-17T02:22:57.153Z,101575.22
2022-10-17T02:23:33.567Z,101570.09
2022-10-17T02:24:14.201Z,101567.75
2022-10-17T02:25:18.575Z,101565.78
2022-10-17T02:26:10.314Z,101574.78
2022-10-17T02:26:52.621Z,101570.47
2022-10-17T02:27:30.459Z,101570.47
2022-10-17T02:28:21.521Z,101570.47
2022-10-17T02:29:17.817Z,101571.28
2022-10-17T02:30:16.087Z,101568.91
2022-10-17T02:30:53.572Z,101578.69
2022-10-17T02:31:33.411Z,101570.06
2022-10-17T02:32:11.607Z,101570.06
2022-10-17T02:32:51.489Z,101570.84
2022-10-17T02:33:28.699Z,101568.91
2022-10-17T02:34:05.133Z,101570.06
2022-10-17T02:34:47.407Z,101570.06
2022-10-17T02:35:20.304Z,101564.59
2022-10-17T02:35:56.282Z,101565.78
2022-10-17T02:36:35.114Z,101560.69
2022-10-17T02:37:09.633Z,101559.53
2022-10-17T02:37:44.091Z,101556.00
2022-10-17T02:38:16.649Z,101563.09
2022-10-17T02:38:50.302Z,101560.38
2022-10-17T02:39:24.988Z,101568.22
2022-10-17T02:39:59.286Z,101554.53
2022-10-17T02:40:31.911Z,101562.72
2022-10-17T02:41:07.611Z,101558.09
2022-10-17T02:41:40.861Z,101567.47
2022-10-17T02:42:14.000Z,101557.31
2022-10-17T02:42:46.392Z,101565.16
2022-10-17T02:43:17.966Z,101562.00
2022-10-17T02:43:50.932Z,101559.69
2022-10-17T02:44:24.645Z,101554.22
2022-10-17T02:45:00.963Z,101548.72
2022-10-17T02:45:36.033Z,101548.72
2022-10-17T02:46:08.123Z,101556.56
2022-10-17T02:46:41.470Z,101551.06
2022-10-17T02:47:31.934Z,101548.72
2022-10-17T02:48:10.875Z,101551.88
2022-10-17T02:48:47.439Z,101550.31
2022-10-17T02:49:24.345Z,101552.25
2022-10-17T02:49:58.402Z,101560.09
2022-10-17T02:50:51.424Z,101561.25
2022-10-17T02:51:25.846Z,101554.25
2022-10-17T02:52:05.211Z,101547.19
2022-10-17T02:52:49.480Z,101553.88
2022-10-17T02:53:45.977Z,101549.94
2022-10-17T02:54:22.386Z,101558.94
2022-10-17T02:55:16.537Z,101562.88
2022-10-17T02:55:53.840Z,101557.78
2022-10-17T02:56:28.879Z,101556.19
2022-10-17T02:57:08.702Z,101566.78
2022-10-17T02:57:44.361Z,101563.63
2022-10-17T02:58:23.958Z,101567.19
2022-10-17T02:58:59.483Z,101558.94
2022-10-17T03:00:08.942Z,101559.75
2022-10-17T03:00:41.614Z,101565.66
2022-10-17T03:01:14.193Z,101561.34
2022-10-17T03:01:46.121Z,101559.00
2022-10-17T03:02:17.960Z,101557.84
2022-10-17T03:02:51.611Z,101565.31
2022-10-17T03:03:26.660Z,101560.59
2022-10-17T03:04:12.874Z,101568.44
2022-10-17T03:04:46.185Z,101562.16
2022-10-17T03:05:21.004Z,101567.66
2022-10-17T03:05:52.948Z,101570.38
2022-10-17T03:06:24.354Z,101563.69
2022-10-17T03:06:56.033Z,101559.44
2022-10-17T03:07:27.577Z,101562.94
2022-10-17T03:07:59.045Z,101565.31
2022-10-17T03:08:30.582Z,101575.09
2022-10-17T03:09:02.068Z,101573.13
2022-10-17T03:09:33.477Z,101564.53
2022-10-17T03:10:05.520Z,101564.53
2022-10-17T03:10:37.047Z,101569.22
2022-10-17T03:11:08.750Z,101567.69
2022-10-17T03:11:40.132Z,101560.22
2022-10-17T03:12:11.481Z,101565.69
2022-10-17T03:12:43.093Z,101571.22
2022-10-17T03:13:15.942Z,101567.69
2022-10-17T03:13:47.553Z,101564.53
2022-10-17T03:14:18.918Z,101563.00
2022-10-17T03:14:50.266Z,101565.38
2022-10-17T03:15:21.669Z,101564.97
2022-10-17T03:15:53.030Z,101569.28
2022-10-17T03:16:24.735Z,101571.66
2022-10-17T03:16:56.313Z,101568.09
2022-10-17T03:17:27.681Z,101564.59
2022-10-17T03:17:59.207Z,101561.44
2022-10-17T03:18:30.577Z,101550.47
2022-10-17T03:19:02.001Z,101555.22
2022-10-17T03:19:33.374Z,101560.34
2022-10-17T03:20:06.593Z,101561.50
2022-10-17T03:20:38.119Z,101561.06
2022-10-17T03:21:09.549Z,101568.09
2022-10-17T03:21:41.148Z,101567.38
2022-10-17T03:22:12.517Z,101566.22
2022-10-17T03:22:43.868Z,101568.59
2022-10-17T03:23:15.490Z,101563.13
2022-10-17T03:23:47.129Z,101567.84
2022-10-17T03:24:18.490Z,101567.06
2022-10-17T03:24:50.465Z,101559.22
2022-10-17T03:25:22.058Z,101562.78
2022-10-17T03:25:53.466Z,101561.19
2022-10-17T03:26:24.935Z,101563.56
2022-10-17T03:26:56.479Z,101574.91
2022-10-17T03:27:28.103Z,101573.38
2022-10-17T03:28:01.637Z,101573.38
2022-10-17T03:28:33.427Z,101569.06
2022-10-17T03:29:05.133Z,101567.88
2022-10-17T03:29:36.536Z,101561.22
2022-10-17T03:30:08.817Z,101565.94
2022-10-17T03:30:40.214Z,101565.94
2022-10-17T03:31:15.904Z,101563.63
2022-10-17T03:31:47.524Z,101565.59
2022-10-17T03:32:18.969Z,101571.88
2022-10-17T03:32:50.610Z,101563.63
2022-10-17T03:33:21.946Z,101565.97
2022-10-17T03:33:53.334Z,101566.75
2022-10-17T03:34:24.702Z,101569.88
2022-10-17T03:34:56.181Z,101563.63
2022-10-17T03:35:27.754Z,101570.28
2022-10-17T03:35:59.303Z,101578.50
2022-10-17T03:36:30.693Z,101578.13
2022-10-17T03:37:02.352Z,101572.28
2022-10-17T03:37:33.755Z,101573.03
2022-10-17T03:38:05.129Z,101573.06
2022-10-17T03:38:37.244Z,101573.47
2022-10-17T03:39:08.873Z,101575.44
2022-10-17T03:39:40.462Z,101574.25
2022-10-17T03:40:11.885Z,101583.69
2022-10-17T03:40:43.237Z,101575.84
2022-10-17T03:41:14.914Z,101578.19
2022-10-17T03:41:46.630Z,101566.84
2022-10-17T03:42:17.988Z,101570.41
2022-10-17T03:42:49.418Z,101570.34
2022-10-17T03:43:20.784Z,101569.59
2022-10-17T03:43:55.175Z,101574.31
2022-10-17T03:44:26.571Z,101574.69
2022-10-17T03:44:57.922Z,101579.41
2022-10-17T03:45:29.379Z,101582.53
2022-10-17T03:46:01.418Z,101584.09
2022-10-17T03:46:33.034Z,101576.63
2022-10-17T03:47:04.454Z,101582.16
2022-10-17T03:47:35.853Z,101569.97
2022-10-17T03:48:07.410Z,101585.63
2022-10-17T03:48:39.042Z,101587.63
2022-10-17T03:49:10.557Z,101590.38
2022-10-17T03:49:42.008Z,101583.69
2022-10-17T03:50:13.535Z,101583.31
2022-10-17T03:50:44.893Z,101588.44
2022-10-17T03:51:16.399Z,101583.34
2022-10-17T03:51:47.791Z,101587.66
2022-10-17T03:52:19.169Z,101581.44
2022-10-17T03:52:50.594Z,101584.53
2022-10-17T03:53:22.091Z,101586.13
2022-10-17T03:53:53.602Z,101588.09
2022-10-17T03:54:24.989Z,101590.09
2022-10-17T03:54:56.385Z,101585.38
2022-10-17T03:55:27.803Z,101585.78
2022-10-17T03:56:24.895Z,101586.97
2022-10-17T03:57:29.020Z,101579.13
2022-10-17T03:58:00.537Z,101585.03
2022-10-17T03:58:31.884Z,101589.72
2022-10-17T03:59:03.516Z,101588.16
2022-10-17T03:59:35.076Z,101585.03
2022-10-17T04:00:07.214Z,101581.13
2022-10-17T04:00:38.598Z,101577.97
2022-10-17T04:01:12.801Z,101578.38
2022-10-17T04:01:44.803Z,101579.53
2022-10-17T04:02:16.490Z,101579.97
2022-10-17T04:02:47.847Z,101579.16
2022-10-17T04:03:19.469Z,101584.66
2022-10-17T04:03:56.212Z,101584.66
2022-10-17T04:04:27.721Z,101577.59
2022-10-17T04:04:59.583Z,101580.34
2022-10-17T04:05:31.126Z,101574.88
2022-10-17T04:06:06.579Z,101578.78
2022-10-17T04:06:41.094Z,101583.09
2022-10-17T04:07:13.536Z,101572.56
2022-10-17T04:07:44.922Z,101578.81
2022-10-17T04:08:16.377Z,101577.66
2022-10-17T04:08:48.374Z,101577.28
2022-10-17T04:09:19.861Z,101580.03
2022-10-17T04:09:51.296Z,101575.31
2022-10-17T04:10:22.710Z,101576.13
2022-10-17T04:10:59.174Z,101582.38
2022-10-17T04:11:30.997Z,101572.97
2022-10-17T04:12:02.397Z,101576.53
2022-10-17T04:12:33.758Z,101575.31
2022-10-17T04:13:06.516Z,101582.00
2022-10-17T04:13:37.984Z,101574.53
2022-10-17T04:14:09.734Z,101579.25
2022-10-17T04:14:41.083Z,101585.53
2022-10-17T04:15:12.626Z,101583.97
2022-10-17T04:15:54.742Z,101587.50
2022-10-17T04:16:27.265Z,101593.75
2022-10-17T04:16:58.728Z,101593.38
2022-10-17T04:17:35.764Z,101582.38
2022-10-17T04:18:09.611Z,101594.16
2022-10-17T04:18:41.803Z,101596.13
2022-10-17T04:19:14.270Z,101592.59
2022-10-17T04:19:45.671Z,101576.91
2022-10-17T04:20:17.184Z,101581.59
2022-10-17T04:20:48.581Z,101582.38
2022-10-17T04:21:20.032Z,101583.97
2022-10-17T04:21:51.412Z,101587.09
2022-10-17T04:22:23.006Z,101573.38
2022-10-17T04:22:54.437Z,101587.09
2022-10-17T04:23:27.922Z,101582.38
2022-10-17T04:24:00.779Z,101589.03
2022-10-17T04:24:32.432Z,101587.88
2022-10-17T04:25:04.357Z,101597.66
2022-10-17T04:25:36.786Z,101590.59
2022-10-17T04:26:08.310Z,101590.63
2022-10-17T04:26:39.899Z,101594.16
2022-10-17T04:27:11.368Z,101587.88
2022-10-17T04:27:45.077Z,101597.28
2022-10-17T04:28:16.418Z,101602.00
2022-10-17T04:28:48.021Z,101596.13
2022-10-17T04:29:19.441Z,101595.72
2022-10-17T04:29:50.847Z,101601.22
2022-10-17T04:30:22.279Z,101595.72
2022-10-17T04:31:01.680Z,101600.06
2022-10-17T04:31:33.121Z,101599.28
2022-10-17T04:32:04.662Z,101589.84
2022-10-17T04:32:38.551Z,101586.31
2022-10-17T04:33:09.897Z,101600.44
2022-10-17T04:33:42.276Z,101591.06
2022-10-17T04:34:16.953Z,101586.72
2022-10-17T04:34:50.127Z,101587.13
2022-10-17T04:35:21.665Z,101591.06
2022-10-17T04:36:13.268Z,101589.47
2022-10-17T04:36:44.612Z,101594.97
2022-10-17T04:37:16.369Z,101593.38
2022-10-17T04:37:47.710Z,101592.63
2022-10-17T04:38:19.105Z,101593.38
2022-10-17T04:38:50.655Z,101593.38
2022-10-17T04:39:22.216Z,101591.84
2022-10-17T04:39:56.713Z,101593.78
2022-10-17T04:40:28.120Z,101592.22
2022-10-17T04:41:03.132Z,101598.47
2022-10-17T04:41:34.624Z,101596.91
2022-10-17T04:42:06.194Z,101600.44
2022-10-17T04:42:37.777Z,101598.88
2022-10-17T04:43:10.481Z,101595.75
2022-10-17T04:43:45.536Z,101590.63
2022-10-17T04:44:20.813Z,101595.78
2022-10-17T04:44:52.471Z,101597.69
2022-10-17T04:45:23.833Z,101602.81
2022-10-17T04:45:57.474Z,101594.97
2022-10-17T04:46:28.917Z,101604.38
2022-10-17T04:47:00.332Z,101595.75
2022-10-17T04:47:32.147Z,101608.69
2022-10-17T04:48:03.629Z,101606.75
2022-10-17T04:48:35.332Z,101603.97
2022-10-17T04:49:06.921Z,101602.81
2022-10-17T04:49:38.413Z,101607.13
2022-10-17T04:50:10.226Z,101603.22
2022-10-17T04:50:41.675Z,101606.75
2022-10-17T04:51:16.372Z,101608.69
2022-10-17T04:51:47.925Z,101611.84
2022-10-17T04:52:19.357Z,101611.06
2022-10-17T04:52:53.263Z,101611.84
2022-10-17T04:53:25.060Z,101613.81
2022-10-17T04:53:56.557Z,101616.94
2022-10-17T04:54:27.932Z,101612.63
2022-10-17T04:54:59.509Z,101620.88
2022-10-17T04:55:31.657Z,101622.47
2022-10-17T04:56:09.641Z,101627.56
2022-10-17T04:56:41.117Z,101624.00
2022-10-17T04:57:12.685Z,101621.69
2022-10-17T04:57:44.244Z,101624.00
2022-10-17T04:58:16.847Z,101617.75
2022-10-17T04:58:48.509Z,101629.16
2022-10-17T04:59:19.962Z,101622.47
2022-10-17T04:59:51.440Z,101623.25
2022-10-17T05:00:22.925Z,101624.44
2022-10-17T05:00:54.345Z,101621.28
2022-10-17T05:01:26.117Z,101621.72
2022-10-17T05:01:57.514Z,101627.19
2022-10-17T05:02:29.365Z,101621.28
2022-10-17T05:03:03.425Z,101630.34
2022-10-17T05:03:36.092Z,101621.28
2022-10-17T05:04:07.507Z,101620.13
2022-10-17T05:04:38.887Z,101625.25
2022-10-17T05:05:10.400Z,101627.19
2022-10-17T05:05:42.790Z,101637.00
2022-10-17T05:06:18.552Z,101626.44
2022-10-17T05:06:50.153Z,101624.47
2022-10-17T05:07:21.741Z,101635.03
2022-10-17T05:07:53.299Z,101622.91
2022-10-17T05:08:24.648Z,101624.84
2022-10-17T05:08:57.463Z,101630.75
2022-10-17T05:09:31.558Z,101629.97
2022-10-17T05:10:03.474Z,101623.28
2022-10-17T05:10:43.596Z,101630.38
2022-10-17T05:11:25.494Z,101626.03
2022-10-17T05:11:57.089Z,101625.25
2022-10-17T05:12:28.652Z,101627.22
2022-10-17T05:13:00.241Z,101630.75
2022-10-17T05:13:33.603Z,101628.78
2022-10-17T05:14:04.959Z,101629.59
2022-10-17T05:14:36.316Z,101626.84
2022-10-17T05:15:08.303Z,101622.16
2022-10-17T05:15:39.762Z,101619.78
2022-10-17T05:16:11.203Z,101628.81
2022-10-17T05:16:42.767Z,101626.84
2022-10-17T05:17:14.152Z,101627.63
2022-10-17T05:17:46.018Z,101626.84
2022-10-17T05:18:19.962Z,101628.00
2022-10-17T05:18:53.828Z,101624.09
2022-10-17T05:19:25.286Z,101624.13
2022-10-17T05:19:56.886Z,101621.75
2022-10-17T05:20:29.521Z,101628.81
2022-10-17T05:21:03.700Z,101616.66
2022-10-17T05:21:37.195Z,101629.22
2022-10-17T05:22:08.793Z,101632.34
2022-10-17T05:22:42.048Z,101619.44
2022-10-17T05:23:13.758Z,101628.84
2022-10-17T05:23:45.974Z,101620.97
2022-10-17T05:24:17.518Z,101622.97
2022-10-17T05:24:51.842Z,101625.69
2022-10-17T05:25:24.440Z,101626.91
2022-10-17T05:25:55.938Z,101623.34
2022-10-17T05:26:27.336Z,101631.97
2022-10-17T05:26:58.961Z,101631.19
2022-10-17T05:27:30.393Z,101625.69
2022-10-17T05:28:01.708Z,101624.94
2022-10-17T05:28:34.436Z,101629.25
2022-10-17T05:29:06.153Z,101623.38
2022-10-17T05:29:37.618Z,101624.94
2022-10-17T05:30:09.708Z,101621.44
2022-10-17T05:30:41.334Z,101615.56
2022-10-17T05:31:13.322Z,101617.13
2022-10-17T05:31:44.664Z,101618.69
2022-10-17T05:32:16.706Z,101631.25
2022-10-17T05:32:48.347Z,101627.31
2022-10-17T05:33:19.952Z,101633.19
2022-10-17T05:33:51.319Z,101623.00
2022-10-17T05:34:23.030Z,101627.34
2022-10-17T05:34:54.417Z,101633.59
2022-10-17T05:35:25.853Z,101635.94
2022-10-17T05:35:57.742Z,101633.19
2022-10-17T05:36:29.236Z,101631.25
2022-10-17T05:37:00.624Z,101633.19
2022-10-17T05:37:32.260Z,101639.09
2022-10-17T05:38:03.941Z,101636.34
2022-10-17T05:38:35.597Z,101634.78
2022-10-17T05:39:06.975Z,101634.78
2022-10-17T05:39:38.348Z,101637.53
2022-10-17T05:40:10.189Z,101636.72
2022-10-17T05:40:41.589Z,101635.56
2022-10-17T05:41:12.921Z,101641.03
2022-10-17T05:41:44.255Z,101633.22
2022-10-17T05:42:15.607Z,101635.19
2022-10-17T05:42:48.270Z,101634.81
2022-10-17T05:43:19.818Z,101638.72
2022-10-17T05:43:51.241Z,101643.41
2022-10-17T05:44:22.798Z,101645.78
2022-10-17T05:44:54.270Z,101643.81
2022-10-17T05:45:25.911Z,101642.25
2022-10-17T05:45:57.638Z,101651.66
2022-10-17T05:46:29.162Z,101654.81
2022-10-17T05:47:00.899Z,101643.44
2022-10-17T05:47:32.648Z,101651.28
2022-10-17T05:48:04.353Z,101657.56
2022-10-17T05:48:36.174Z,101652.06
2022-10-17T05:49:14.893Z,101656.00
2022-10-17T05:49:52.513Z,101648.16
2022-10-17T05:50:25.138Z,101650.91
2022-10-17T05:51:01.816Z,101644.25
2022-10-17T05:51:34.017Z,101655.22
2022-10-17T05:52:05.432Z,101650.13
2022-10-17T05:52:36.949Z,101641.09
2022-10-17T05:53:08.517Z,101639.53
2022-10-17T05:53:41.340Z,101647.41
2022-10-17T05:54:12.754Z,101635.22
2022-10-17T05:54:44.316Z,101636.78
2022-10-17T05:55:16.005Z,101633.66
2022-10-17T05:55:55.533Z,101644.66
2022-10-17T05:56:27.007Z,101637.59
2022-10-17T05:56:58.438Z,101639.19
2022-10-17T05:57:29.838Z,101636.03
2022-10-17T05:58:01.925Z,101630.13
2022-10-17T05:58:52.325Z,101635.22
2022-10-17T05:59:26.924Z,101636.78
2022-10-17T05:59:58.499Z,101635.22
2022-10-17T06:19:29.086Z,101652.47
2022-10-17T06:20:00.500Z,101642.69
2022-10-17T06:20:31.961Z,101647.75
2022-10-17T06:21:09.273Z,101637.94
2022-10-17T06:21:40.881Z,101632.47
2022-10-17T06:22:12.811Z,101652.09
2022-10-17T06:22:44.405Z,101645.81
2022-10-17T06:23:16.468Z,101641.50
2022-10-17T06:23:48.112Z,101636.06
2022-10-17T06:24:19.463Z,101637.19
2022-10-17T06:24:52.522Z,101644.66
2022-10-17T06:25:23.861Z,101640.75
2022-10-17T06:25:59.041Z,101644.66
2022-10-17T06:26:30.364Z,101646.25
2022-10-17T06:27:01.987Z,101650.16
2022-10-17T06:27:33.325Z,101641.53
2022-10-17T06:28:04.847Z,101661.97
2022-10-17T06:28:37.263Z,101651.00
2022-10-17T06:29:09.338Z,101653.72
2022-10-17T06:29:40.919Z,101662.69
2022-10-17T06:30:12.283Z,101665.84
2022-10-17T06:30:43.623Z,101669.75
2022-10-17T06:31:17.234Z,101674.53
2022-10-17T06:31:48.708Z,101670.94
2022-10-17T06:32:20.810Z,101672.94
2022-10-17T06:32:52.918Z,101671.78
2022-10-17T06:33:24.521Z,101674.50
2022-10-17T06:33:56.154Z,101674.91
2022-10-17T06:34:27.548Z,101673.34
2022-10-17T06:34:58.987Z,101678.06
2022-10-17T06:35:30.386Z,101672.97
2022-10-17T06:36:02.153Z,101677.28
2022-10-17T06:36:33.521Z,101678.06
2022-10-17T06:37:04.886Z,101681.59
2022-10-17T06:37:37.567Z,101679.25
2022-10-17T06:38:09.909Z,101678.47
2022-10-17T06:38:41.332Z,101682.00
2022-10-17T06:39:13.341Z,101679.66
2022-10-17T06:39:44.749Z,101678.47
2022-10-17T06:40:17.192Z,101671.00
2022-10-17T06:40:48.825Z,101674.16
2022-10-17T06:41:20.217Z,101677.69
2022-10-17T06:41:51.777Z,101679.25
2022-10-17T06:42:23.103Z,101677.69
2022-10-17T06:42:54.664Z,101677.69
2022-10-17T06:43:27.989Z,101674.56
2022-10-17T06:43:59.479Z,101684.00
2022-10-17T06:44:32.101Z,101684.00
2022-10-17T06:45:03.881Z,101669.47
2022-10-17T06:45:35.273Z,101680.06
2022-10-17T06:46:07.043Z,101672.22
2022-10-17T06:46:39.679Z,101684.78
2022-10-17T06:47:12.711Z,101687.91
2022-10-17T06:47:45.939Z,101685.94
2022-10-17T06:48:17.394Z,101686.34
2022-10-17T06:48:48.757Z,101687.16
2022-10-17T06:49:20.101Z,101675.75
2022-10-17T06:49:51.556Z,101687.16
2022-10-17T06:50:23.092Z,101689.50
2022-10-17T06:50:59.027Z,101682.03
2022-10-17T06:51:31.650Z,101686.38
2022-10-17T06:52:03.096Z,101681.66
2022-10-17T06:52:34.461Z,101684.03
2022-10-17T06:53:05.904Z,101683.22
2022-10-17T06:53:38.769Z,101692.28
2022-10-17T06:54:10.145Z,101684.03
2022-10-17T06:54:41.503Z,101694.63
2022-10-17T06:55:14.887Z,101696.56
2022-10-17T06:55:52.246Z,101695.03